Time;durP1;ratioP1;P1;durP2;ratioP2;P2;SDS_P1;SDS_P2;PMS_P1;PMS_P2;Temp;Humidity;BMP_temperature;BMP_pressure;BME280_temperature;BME280_humidity;BME280_pressure;Samples;Min_cycle;Max_cycle;Signal;HPM_P1;HPM_P2
2022/03/13 00:00:39;;;;;;;338.33;323.53;;;11.20;99.90;;;;;;4390860;32;20639;-61
2022/03/13 00:03:09;;;;;;;345.20;330.13;;;11.10;99.90;;;;;;4391417;32;20152;-62
2022/03/13 00:05:41;;;;;;;334.10;319.47;;;11.10;99.90;;;;;;4379465;32;20170;-62
2022/03/13 00:08:18;;;;;;;341.80;326.63;;;11.20;99.90;;;;;;4391814;32;20168;-62
2022/03/13 00:10:55;;;;;;;335.47;320.67;;;11.20;99.90;;;;;;4391865;32;20160;-61
2022/03/13 00:13:25;;;;;;;342.53;327.63;;;11.20;99.90;;;;;;4391881;32;20215;-62
2022/03/13 00:15:52;;;;;;;322.57;308.67;;;11.20;99.90;;;;;;4392441;32;20239;-62
2022/03/13 00:18:20;;;;;;;333.77;319.43;;;11.20;99.90;;;;;;4391914;32;20586;-62
2022/03/13 00:20:48;;;;;;;340.77;325.17;;;11.20;99.90;;;;;;4391792;32;20156;-61
2022/03/13 00:23:16;;;;;;;331.47;316.90;;;11.20;99.90;;;;;;4391778;32;20144;-61
2022/03/13 00:25:44;;;;;;;331.27;316.73;;;11.20;99.90;;;;;;4391654;32;20173;-61
2022/03/13 00:28:12;;;;;;;329.93;315.50;;;11.20;99.90;;;;;;4392402;32;20168;-61
2022/03/13 00:30:40;;;;;;;322.90;308.83;;;11.20;99.90;;;;;;4391510;32;20152;-61
2022/03/13 00:33:08;;;;;;;317.53;303.77;;;11.10;99.90;;;;;;4391451;32;20161;-61
2022/03/13 00:35:38;;;;;;;310.53;296.83;;;11.20;99.90;;;;;;4391074;32;20151;-61
2022/03/13 00:38:05;;;;;;;318.47;304.43;;;11.20;99.90;;;;;;4391208;32;20149;-61
2022/03/13 00:40:35;;;;;;;323.67;309.70;;;11.30;99.90;;;;;;4391030;32;20202;-61
2022/03/13 00:43:04;;;;;;;322.83;308.57;;;11.20;99.90;;;;;;4391678;32;20527;-62
2022/03/13 00:45:31;;;;;;;317.07;303.33;;;11.20;99.90;;;;;;4391072;32;20155;-61
2022/03/13 00:48:03;;;;;;;318.63;304.80;;;11.20;99.90;;;;;;4391342;32;20161;-61
2022/03/13 00:50:30;;;;;;;322.90;308.97;;;11.20;99.90;;;;;;4389367;32;20169;-61
2022/03/13 00:52:57;;;;;;;320.50;306.70;;;11.20;99.90;;;;;;4391109;32;20156;-62
2022/03/13 00:55:28;;;;;;;327.17;312.90;;;11.10;99.90;;;;;;4391271;32;20461;-61
2022/03/13 00:57:58;;;;;;;317.37;303.90;;;11.20;99.90;;;;;;4391528;32;20484;-61
2022/03/13 01:00:28;;;;;;;292.50;279.73;;;11.20;99.90;;;;;;4389315;32;20214;-61
2022/03/13 01:02:56;;;;;;;313.57;299.90;;;11.10;99.90;;;;;;4391115;32;20535;-61
2022/03/13 01:05:26;;;;;;;293.00;280.07;;;11.20;99.90;;;;;;4392458;32;20155;-61
2022/03/13 01:07:54;;;;;;;316.23;302.57;;;11.10;99.80;;;;;;4391271;32;20194;-61
2022/03/13 01:10:37;;;;;;;312.43;298.87;;;11.20;99.90;;;;;;4390870;32;20202;-61
2022/03/13 01:13:04;;;;;;;303.97;291.13;;;11.20;99.90;;;;;;4391161;32;20215;-61
2022/03/13 01:15:31;;;;;;;310.67;297.53;;;11.10;99.90;;;;;;4391109;32;20152;-61
2022/03/13 01:17:58;;;;;;;319.40;305.83;;;11.10;99.70;;;;;;4391002;32;20457;-61
2022/03/13 01:20:26;;;;;;;311.10;298.00;;;11.20;99.90;;;;;;4391711;32;20518;-61
2022/03/13 01:22:53;;;;;;;315.40;301.93;;;11.20;99.90;;;;;;4391211;32;20646;-61
2022/03/13 01:25:20;;;;;;;318.60;304.70;;;11.10;99.90;;;;;;4390857;32;20469;-61
2022/03/13 01:27:47;;;;;;;318.00;304.47;;;11.10;99.90;;;;;;4390313;32;20148;-61
2022/03/13 01:30:14;;;;;;;317.93;304.00;;;11.10;99.90;;;;;;4389949;32;20588;-61
2022/03/13 01:32:42;;;;;;;332.23;318.10;;;11.10;99.90;;;;;;4390428;32;20174;-61
2022/03/13 01:35:10;;;;;;;338.57;324.37;;;11.00;99.90;;;;;;4389630;32;20155;-62
2022/03/13 01:37:41;;;;;;;319.70;305.87;;;11.00;99.90;;;;;;4391527;32;20622;-62
2022/03/13 01:40:11;;;;;;;335.30;321.07;;;11.00;99.90;;;;;;4390193;32;20484;-62
2022/03/13 01:42:40;;;;;;;329.63;315.70;;;11.00;99.90;;;;;;4385661;32;20200;-62
2022/03/13 01:45:11;;;;;;;329.93;315.80;;;10.90;99.90;;;;;;4385986;32;20234;-62
2022/03/13 01:47:39;;;;;;;316.63;303.30;;;10.90;99.90;;;;;;4389925;32;20148;-61
2022/03/13 01:50:10;;;;;;;328.07;314.30;;;10.80;99.90;;;;;;4387737;32;20157;-61
2022/03/13 01:52:45;;;;;;;330.93;316.67;;;10.70;99.90;;;;;;4388119;32;20155;-61
2022/03/13 01:55:13;;;;;;;328.07;314.00;;;10.70;99.90;;;;;;4389800;32;20200;-61
2022/03/13 01:57:40;;;;;;;346.23;331.60;;;10.70;99.90;;;;;;4390748;32;20145;-61
2022/03/13 02:00:11;;;;;;;346.00;331.33;;;10.70;99.90;;;;;;4390210;32;20168;-61
2022/03/13 02:02:44;;;;;;;346.67;331.87;;;10.60;99.90;;;;;;4390528;32;20152;-61
2022/03/13 02:05:28;;;;;;;329.50;315.90;;;10.70;99.90;;;;;;4389760;32;20174;-61
2022/03/13 02:07:57;;;;;;;318.03;304.17;;;10.60;99.90;;;;;;4386162;32;20202;-61
2022/03/13 02:10:24;;;;;;;336.37;322.17;;;10.60;99.90;;;;;;4389647;32;20168;-61
2022/03/13 02:12:51;;;;;;;340.43;325.57;;;10.50;99.90;;;;;;4390162;32;20172;-61
2022/03/13 02:15:19;;;;;;;341.37;326.60;;;10.40;99.90;;;;;;4389736;32;20207;-61
2022/03/13 02:17:46;;;;;;;341.37;326.90;;;10.40;99.90;;;;;;4390556;32;20217;-61
2022/03/13 02:20:21;;;;;;;339.93;325.27;;;10.30;99.90;;;;;;4390010;32;20598;-61
2022/03/13 02:23:01;;;;;;;328.33;314.23;;;10.30;99.90;;;;;;4390375;32;20148;-61
2022/03/13 02:25:32;;;;;;;333.17;318.87;;;10.20;99.90;;;;;;4389350;32;20174;-61
2022/03/13 02:27:59;;;;;;;320.80;307.03;;;10.20;99.90;;;;;;4391095;32;20153;-61
2022/03/13 02:30:27;;;;;;;343.63;328.97;;;10.10;99.90;;;;;;4389914;32;20533;-61
2022/03/13 02:32:54;;;;;;;356.77;341.60;;;10.10;99.90;;;;;;4389416;32;20152;-61
2022/03/13 02:35:21;;;;;;;344.80;329.77;;;10.20;99.90;;;;;;4390423;32;20156;-61
2022/03/13 02:37:49;;;;;;;341.03;326.37;;;10.10;99.90;;;;;;4389543;32;20152;-61
2022/03/13 02:40:21;;;;;;;328.37;314.27;;;10.10;99.90;;;;;;4389825;32;20542;-61
2022/03/13 02:42:52;;;;;;;332.10;317.80;;;10.10;99.90;;;;;;4389918;32;20160;-61
2022/03/13 02:45:29;;;;;;;349.67;334.63;;;10.10;99.90;;;;;;4389977;32;20198;-61
2022/03/13 02:47:57;;;;;;;338.67;324.20;;;10.10;99.90;;;;;;4390492;32;20164;-61
2022/03/13 02:50:24;;;;;;;331.53;317.47;;;10.10;99.90;;;;;;4389676;32;20218;-61
2022/03/13 02:52:51;;;;;;;337.43;322.83;;;10.10;99.90;;;;;;4390312;32;20165;-61
2022/03/13 02:55:22;;;;;;;355.33;339.97;;;10.10;99.90;;;;;;4389545;32;20164;-61
2022/03/13 02:57:49;;;;;;;339.77;325.07;;;10.10;99.90;;;;;;4374920;32;20450;-61
2022/03/13 03:00:18;;;;;;;327.97;313.90;;;10.10;99.90;;;;;;4384569;32;20496;-63
2022/03/13 03:02:45;;;;;;;339.47;324.80;;;10.20;99.90;;;;;;4389944;32;20187;-60
2022/03/13 03:05:15;;;;;;;330.17;316.20;;;10.20;99.90;;;;;;4390429;32;20170;-61
2022/03/13 03:07:42;;;;;;;324.13;310.33;;;10.20;99.90;;;;;;4375253;32;20191;-61
2022/03/13 03:10:12;;;;;;;312.87;299.23;;;10.20;99.90;;;;;;4385871;32;20152;-63
2022/03/13 03:12:41;;;;;;;307.63;294.27;;;10.20;99.90;;;;;;4389853;32;20202;-62
2022/03/13 03:15:13;;;;;;;324.97;311.13;;;10.20;99.90;;;;;;4390492;32;20205;-63
2022/03/13 03:17:40;;;;;;;314.40;300.83;;;10.20;99.90;;;;;;4385933;32;20234;-62
2022/03/13 03:20:14;;;;;;;320.50;306.70;;;10.20;99.90;;;;;;4382623;32;20160;-62
2022/03/13 03:22:41;;;;;;;322.63;308.20;;;10.20;99.90;;;;;;4377623;32;20179;-60
2022/03/13 03:25:11;;;;;;;328.07;314.17;;;10.10;99.90;;;;;;4389230;32;20205;-60
2022/03/13 03:27:42;;;;;;;328.50;314.40;;;10.10;99.90;;;;;;4389493;32;20148;-61
2022/03/13 03:30:18;;;;;;;325.03;311.20;;;10.10;99.90;;;;;;4389409;32;20637;-61
2022/03/13 03:32:45;;;;;;;318.07;304.47;;;10.00;99.90;;;;;;4389949;32;20571;-61
2022/03/13 03:35:12;;;;;;;344.77;329.83;;;10.00;99.90;;;;;;4377938;32;20152;-63
2022/03/13 03:37:39;;;;;;;342.53;327.77;;;9.90;99.90;;;;;;4389899;32;20194;-61
2022/03/13 03:40:11;;;;;;;349.63;334.60;;;10.00;99.90;;;;;;4389894;32;20179;-61
2022/03/13 03:42:42;;;;;;;317.27;303.73;;;10.00;99.90;;;;;;4391844;32;20152;-61
2022/03/13 03:45:10;;;;;;;335.27;320.73;;;10.10;99.90;;;;;;4392298;32;20165;-62
2022/03/13 03:47:38;;;;;;;340.17;325.30;;;9.90;99.90;;;;;;4392407;32;20183;-63
2022/03/13 03:50:12;;;;;;;358.97;343.30;;;9.90;99.90;;;;;;4391240;32;20180;-63
2022/03/13 03:52:40;;;;;;;345.30;330.23;;;9.80;99.90;;;;;;4392877;32;20500;-62
2022/03/13 03:55:10;;;;;;;367.83;351.53;;;9.70;99.90;;;;;;4392784;32;20164;-62
2022/03/13 03:57:38;;;;;;;364.50;348.50;;;9.70;99.90;;;;;;4392662;32;20164;-62
2022/03/13 04:00:09;;;;;;;360.07;344.23;;;9.60;99.90;;;;;;4392118;32;20490;-62
2022/03/13 04:02:37;;;;;;;366.17;350.23;;;9.60;99.90;;;;;;4391994;32;20208;-62
2022/03/13 04:05:20;;;;;;;362.70;346.90;;;9.50;99.90;;;;;;4392055;32;20211;-62
2022/03/13 04:07:47;;;;;;;368.50;352.23;;;9.60;99.90;;;;;;4392149;32;20552;-62
2022/03/13 04:10:18;;;;;;;383.43;366.43;;;9.60;99.90;;;;;;4392357;32;20829;-62
2022/03/13 04:12:46;;;;;;;390.63;373.20;;;9.60;99.90;;;;;;4377133;32;20206;-62
2022/03/13 04:15:15;;;;;;;391.30;374.07;;;9.60;99.90;;;;;;4390258;32;20215;-62
2022/03/13 04:17:42;;;;;;;395.57;377.90;;;9.60;99.90;;;;;;4392356;32;20650;-62
2022/03/13 04:20:12;;;;;;;398.57;380.87;;;9.50;99.90;;;;;;4392633;32;20453;-62
2022/03/13 04:22:39;;;;;;;398.20;380.67;;;9.40;99.90;;;;;;4391788;32;20227;-61
2022/03/13 04:25:07;;;;;;;406.80;388.40;;;9.40;99.90;;;;;;4392486;32;20167;-62
2022/03/13 04:27:35;;;;;;;375.07;357.80;;;9.30;99.90;;;;;;4392372;32;20723;-62
2022/03/13 04:30:02;;;;;;;395.47;377.83;;;9.40;99.90;;;;;;4385599;32;20179;-62
2022/03/13 04:32:31;;;;;;;364.33;348.13;;;9.40;99.90;;;;;;4389167;32;20198;-62
2022/03/13 04:34:58;;;;;;;359.80;343.83;;;9.50;99.90;;;;;;4391180;32;20155;-62
2022/03/13 04:37:27;;;;;;;346.47;331.23;;;9.60;99.90;;;;;;4391152;32;20195;-62
2022/03/13 04:39:54;;;;;;;344.17;329.00;;;9.70;99.90;;;;;;4391844;32;20213;-62
2022/03/13 04:42:21;;;;;;;334.87;320.30;;;9.70;99.90;;;;;;4391815;32;20560;-62
2022/03/13 04:44:51;;;;;;;332.23;317.47;;;9.80;99.90;;;;;;4391487;32;20167;-62
2022/03/13 04:47:18;;;;;;;305.17;291.57;;;9.80;99.90;;;;;;4391733;32;20218;-62
2022/03/13 04:49:48;;;;;;;296.83;284.00;;;9.80;99.90;;;;;;4392350;32;20152;-61
2022/03/13 04:52:16;;;;;;;296.97;283.57;;;9.80;99.90;;;;;;4390623;32;20191;-61
2022/03/13 04:54:43;;;;;;;272.63;260.50;;;9.80;99.90;;;;;;4391795;32;20580;-61
2022/03/13 04:57:10;;;;;;;262.60;250.97;;;9.90;99.90;;;;;;4391686;32;20573;-61
2022/03/13 04:59:40;;;;;;;249.47;238.27;;;9.90;99.90;;;;;;4390749;32;20191;-61
2022/03/13 05:02:06;;;;;;;235.30;224.63;;;9.90;99.90;;;;;;4390170;32;20151;-61
2022/03/13 05:04:34;;;;;;;228.77;218.13;;;9.90;99.90;;;;;;4390829;32;20599;-61
2022/03/13 05:07:03;;;;;;;235.10;224.13;;;9.90;99.90;;;;;;4391943;32;20229;-61
2022/03/13 05:09:30;;;;;;;232.70;222.20;;;9.90;99.90;;;;;;4391178;32;20160;-60
2022/03/13 05:11:56;;;;;;;205.27;195.77;;;9.90;99.90;;;;;;4391729;32;20136;-61
2022/03/13 05:14:23;;;;;;;224.77;214.07;;;9.90;99.90;;;;;;4390118;32;20156;-61
2022/03/13 05:16:51;;;;;;;215.33;205.23;;;9.90;99.90;;;;;;4390947;32;20237;-60
2022/03/13 05:19:18;;;;;;;200.53;191.10;;;9.90;99.90;;;;;;4391380;32;20155;-62
2022/03/13 05:21:48;;;;;;;200.03;190.57;;;9.80;99.90;;;;;;4390924;32;20162;-61
2022/03/13 05:24:16;;;;;;;198.23;189.20;;;9.80;99.90;;;;;;4390489;32;20155;-59
2022/03/13 05:26:45;;;;;;;218.57;208.40;;;9.90;99.90;;;;;;4376874;32;20153;-61
2022/03/13 05:29:14;;;;;;;205.00;195.20;;;9.70;99.90;;;;;;4390810;32;20163;-62
2022/03/13 05:31:43;;;;;;;218.83;208.47;;;9.70;99.90;;;;;;4391093;32;20525;-62
2022/03/13 05:34:10;;;;;;;196.77;187.47;;;9.70;99.90;;;;;;4387855;32;20181;-60
2022/03/13 05:36:38;;;;;;;217.67;207.40;;;9.60;99.90;;;;;;4382892;32;20209;-60
2022/03/13 05:39:05;;;;;;;207.63;197.97;;;9.60;99.90;;;;;;4387639;32;20145;-60
2022/03/13 05:41:40;;;;;;;236.73;226.07;;;9.50;99.90;;;;;;4390073;32;20144;-60
2022/03/13 05:44:12;;;;;;;203.73;193.93;;;9.50;99.90;;;;;;4382475;32;20171;-60
2022/03/13 05:46:41;;;;;;;215.30;204.93;;;9.40;99.90;;;;;;4390199;32;20159;-61
2022/03/13 05:49:08;;;;;;;224.27;213.87;;;9.40;99.90;;;;;;4390068;32;20258;-61
2022/03/13 05:51:37;;;;;;;231.50;220.83;;;9.40;99.90;;;;;;4391368;32;20255;-61
2022/03/13 05:54:10;;;;;;;205.67;195.70;;;9.40;99.90;;;;;;4390540;32;20197;-61
2022/03/13 05:56:38;;;;;;;206.17;196.43;;;9.50;99.90;;;;;;4389929;32;20160;-61
2022/03/13 05:59:06;;;;;;;210.23;199.90;;;9.50;99.90;;;;;;4390228;32;20184;-61
2022/03/13 06:01:40;;;;;;;230.57;219.70;;;9.50;99.90;;;;;;4389876;32;20156;-61
2022/03/13 06:04:10;;;;;;;200.37;190.37;;;9.50;99.90;;;;;;4390132;32;20583;-61
2022/03/13 06:06:42;;;;;;;210.43;200.13;;;9.50;99.90;;;;;;4390877;32;20158;-60
2022/03/13 06:09:09;;;;;;;207.87;197.83;;;9.40;99.90;;;;;;4390047;32;20185;-62
2022/03/13 06:11:40;;;;;;;223.60;212.97;;;9.50;99.90;;;;;;4390347;32;20142;-60
2022/03/13 06:14:10;;;;;;;207.63;197.57;;;9.50;99.90;;;;;;4389709;32;20173;-62
2022/03/13 06:16:38;;;;;;;208.33;198.40;;;9.50;99.90;;;;;;4391266;32;20144;-61
2022/03/13 06:19:06;;;;;;;205.40;195.30;;;9.40;99.90;;;;;;4385951;32;20179;-60
2022/03/13 06:21:35;;;;;;;203.20;193.30;;;9.50;99.90;;;;;;4381115;32;20209;-60
2022/03/13 06:24:02;;;;;;;216.53;206.37;;;9.40;99.90;;;;;;4389994;32;20149;-61
2022/03/13 06:26:29;;;;;;;207.73;197.63;;;9.40;99.90;;;;;;4390215;32;20645;-61
2022/03/13 06:28:57;;;;;;;214.80;204.57;;;9.40;99.90;;;;;;4389997;32;20175;-61
2022/03/13 06:31:24;;;;;;;202.00;192.50;;;9.40;99.90;;;;;;4388521;32;20217;-60
2022/03/13 06:33:53;;;;;;;202.87;193.33;;;9.40;99.90;;;;;;4389784;32;20192;-60
2022/03/13 06:36:20;;;;;;;202.57;192.57;;;9.40;99.90;;;;;;4389523;32;20177;-61
2022/03/13 06:38:47;;;;;;;209.70;199.90;;;9.40;99.90;;;;;;4389804;32;20156;-61
2022/03/13 06:41:17;;;;;;;201.70;192.20;;;9.40;99.90;;;;;;4389469;32;20153;-61
2022/03/13 06:43:44;;;;;;;213.17;203.00;;;9.50;99.90;;;;;;4390346;32;20147;-60
2022/03/13 06:46:12;;;;;;;200.07;190.37;;;9.50;99.90;;;;;;4392087;32;20154;-61
2022/03/13 06:48:39;;;;;;;191.30;182.03;;;9.50;99.90;;;;;;4386983;32;20213;-61
2022/03/13 06:51:06;;;;;;;197.33;187.60;;;9.50;99.90;;;;;;4388891;32;20188;-61
2022/03/13 06:53:35;;;;;;;197.07;187.37;;;9.60;99.90;;;;;;4390119;32;20148;-60
2022/03/13 06:56:02;;;;;;;203.73;194.00;;;9.50;99.90;;;;;;4389949;32;20183;-61
2022/03/13 06:58:29;;;;;;;226.27;215.33;;;9.60;99.90;;;;;;4389666;32;20217;-61
2022/03/13 07:00:56;;;;;;;198.17;188.80;;;9.60;99.90;;;;;;4385703;32;20234;-62
2022/03/13 07:03:34;;;;;;;204.13;194.30;;;9.60;99.90;;;;;;4390611;32;20530;-61
2022/03/13 07:06:02;;;;;;;185.17;176.23;;;9.70;99.90;;;;;;4390228;32;20182;-62
2022/03/13 07:08:33;;;;;;;195.07;185.53;;;9.80;99.90;;;;;;4388961;32;20588;-61
2022/03/13 07:11:01;;;;;;;199.93;190.27;;;9.80;99.90;;;;;;4388762;32;20187;-62
2022/03/13 07:13:31;;;;;;;170.93;162.07;;;9.80;99.90;;;;;;4390171;32;20172;-62
2022/03/13 07:16:03;;;;;;;184.67;175.50;;;9.90;99.90;;;;;;4391937;32;20152;-62
2022/03/13 07:18:34;;;;;;;184.50;175.27;;;9.90;99.90;;;;;;4390649;32;20539;-62
2022/03/13 07:21:01;;;;;;;187.27;177.93;;;9.90;99.90;;;;;;4390136;32;20679;-62
2022/03/13 07:23:28;;;;;;;173.23;164.60;;;9.90;99.90;;;;;;4393678;32;20591;-62
2022/03/13 07:25:56;;;;;;;178.33;169.70;;;10.00;99.90;;;;;;4392174;32;20622;-62
2022/03/13 07:28:23;;;;;;;173.67;165.07;;;10.10;99.90;;;;;;4391855;32;20175;-61
2022/03/13 07:30:52;;;;;;;190.17;181.13;;;10.20;99.90;;;;;;4392149;32;20164;-62
2022/03/13 07:33:19;;;;;;;173.43;164.80;;;10.10;99.90;;;;;;4391610;32;20161;-61
2022/03/13 07:35:55;;;;;;;174.60;165.83;;;10.20;99.90;;;;;;4392474;32;20536;-61
2022/03/13 07:38:22;;;;;;;173.73;165.07;;;10.20;99.90;;;;;;4392005;32;20148;-61
2022/03/13 07:40:52;;;;;;;161.80;153.87;;;10.40;99.90;;;;;;4392464;32;20492;-61
2022/03/13 07:43:19;;;;;;;171.17;162.97;;;10.40;99.80;;;;;;4388918;32;20158;-61
2022/03/13 07:45:47;;;;;;;166.50;158.17;;;10.50;99.80;;;;;;4390822;32;20207;-62
2022/03/13 07:48:16;;;;;;;161.13;153.07;;;10.50;99.60;;;;;;4390633;32;20159;-61
2022/03/13 07:50:43;;;;;;;161.77;154.03;;;10.50;99.60;;;;;;4391409;32;20179;-60
2022/03/13 07:53:12;;;;;;;176.63;168.03;;;10.40;99.60;;;;;;4389646;32;20595;-60
2022/03/13 07:55:42;;;;;;;179.30;170.70;;;10.30;99.90;;;;;;4391428;32;20202;-61
2022/03/13 07:58:13;;;;;;;199.97;190.47;;;10.20;99.90;;;;;;4392511;32;20213;-61
2022/03/13 08:00:40;;;;;;;197.70;188.43;;;10.10;99.90;;;;;;4388548;32;20629;-62
2022/03/13 08:03:07;;;;;;;206.73;197.00;;;10.00;99.90;;;;;;4388821;32;20222;-61
2022/03/13 08:05:40;;;;;;;205.10;195.43;;;10.00;99.90;;;;;;4391556;32;20147;-61
2022/03/13 08:08:09;;;;;;;211.20;201.07;;;10.00;99.90;;;;;;4390665;32;20249;-60
2022/03/13 08:10:40;;;;;;;189.93;180.97;;;10.10;99.90;;;;;;4389491;32;20151;-61
2022/03/13 08:13:10;;;;;;;174.17;165.73;;;10.30;99.90;;;;;;4389761;32;20546;-62
2022/03/13 08:15:38;;;;;;;178.93;170.10;;;10.50;99.90;;;;;;4390699;32;20179;-61
2022/03/13 08:18:09;;;;;;;172.77;164.47;;;10.90;99.90;;;;;;4390349;32;20205;-60
2022/03/13 08:20:36;;;;;;;171.80;163.33;;;11.20;99.10;;;;;;4389892;32;20553;-60
2022/03/13 08:23:05;;;;;;;152.53;144.77;;;11.50;99.00;;;;;;4390316;32;20170;-62
2022/03/13 08:25:32;;;;;;;166.97;158.57;;;11.60;98.40;;;;;;4389971;32;20144;-61
2022/03/13 08:28:01;;;;;;;151.07;143.63;;;11.70;98.30;;;;;;4391217;32;20156;-60
2022/03/13 08:30:28;;;;;;;161.53;153.70;;;11.70;98.10;;;;;;4390411;32;20156;-60
2022/03/13 08:35:44;;;;;;;141.50;134.47;;;12.30;97.40;;;;;;4389427;32;20591;-61
2022/03/13 08:38:14;;;;;;;144.93;137.70;;;12.60;96.90;;;;;;4391814;32;20511;-61
2022/03/13 08:40:41;;;;;;;131.23;124.57;;;12.70;96.60;;;;;;4390537;32;20168;-61
2022/03/13 08:43:09;;;;;;;126.47;120.17;;;12.90;96.20;;;;;;4391131;32;20152;-61
2022/03/13 08:45:36;;;;;;;118.40;112.40;;;13.00;95.90;;;;;;4391729;32;20179;-62
2022/03/13 08:48:03;;;;;;;124.67;118.20;;;13.00;95.60;;;;;;4390786;32;20149;-61
2022/03/13 08:50:32;;;;;;;128.60;121.67;;;12.80;95.60;;;;;;4390770;32;20175;-62
2022/03/13 08:53:00;;;;;;;125.87;119.53;;;12.60;95.60;;;;;;4389113;32;20164;-62
2022/03/13 08:55:28;;;;;;;140.50;133.60;;;12.40;96.00;;;;;;4390987;32;20203;-61
2022/03/13 08:57:55;;;;;;;126.30;119.53;;;12.20;96.30;;;;;;4389103;32;20156;-62
2022/03/13 09:00:25;;;;;;;150.50;143.13;;;11.90;96.40;;;;;;4390003;32;20181;-62
2022/03/13 09:02:54;;;;;;;150.20;142.43;;;11.80;96.70;;;;;;4389901;32;20168;-61
2022/03/13 09:05:23;;;;;;;137.77;130.93;;;11.90;96.90;;;;;;4389627;32;20231;-61
2022/03/13 09:07:54;;;;;;;146.13;138.77;;;12.10;96.40;;;;;;4390126;32;20178;-60
2022/03/13 09:10:21;;;;;;;130.47;123.67;;;12.50;96.10;;;;;;4388777;32;20198;-61
2022/03/13 09:12:48;;;;;;;122.27;116.00;;;12.80;95.40;;;;;;4390238;32;20155;-60
2022/03/13 09:15:17;;;;;;;111.37;105.63;;;12.80;94.90;;;;;;4389809;32;20210;-61
2022/03/13 09:17:53;;;;;;;130.37;123.53;;;12.70;94.60;;;;;;4389964;32;20153;-61
2022/03/13 09:20:20;;;;;;;120.93;114.57;;;12.80;95.00;;;;;;4389830;32;20170;-61
2022/03/13 09:22:48;;;;;;;122.37;116.23;;;13.10;94.30;;;;;;4389710;32;20212;-62
2022/03/13 09:25:15;;;;;;;115.07;108.73;;;13.40;94.10;;;;;;4389604;32;20155;-60
2022/03/13 09:27:42;;;;;;;110.27;104.47;;;13.70;93.60;;;;;;4385602;32;20262;-61
2022/03/13 09:30:12;;;;;;;101.00;95.50;;;13.50;93.20;;;;;;4379874;32;20192;-61
2022/03/13 09:32:49;;;;;;;104.40;98.87;;;13.70;93.00;;;;;;4390580;32;20569;-61
2022/03/13 09:35:17;;;;;;;109.70;104.10;;;13.90;92.60;;;;;;4381164;32;20144;-61
2022/03/13 09:37:44;;;;;;;104.87;99.47;;;13.90;92.80;;;;;;4389488;32;20471;-61
2022/03/13 09:40:12;;;;;;;101.43;95.57;;;14.10;92.50;;;;;;4390622;32;20209;-61
2022/03/13 09:42:40;;;;;;;97.23;92.17;;;14.20;92.30;;;;;;4388700;32;20632;-61
2022/03/13 09:45:10;;;;;;;90.70;85.63;;;14.40;91.90;;;;;;4388548;32;20649;-62
2022/03/13 09:47:39;;;;;;;88.23;83.47;;;14.30;91.60;;;;;;4389203;32;20156;-61
2022/03/13 09:50:09;;;;;;;87.47;82.73;;;14.20;91.30;;;;;;4390847;32;20172;-61
2022/03/13 09:52:49;;;;;;;115.07;108.83;;;14.10;91.40;;;;;;4390465;32;20145;-60
2022/03/13 09:55:18;;;;;;;102.30;96.67;;;14.00;91.90;;;;;;4388870;32;20633;-61
2022/03/13 09:57:48;;;;;;;99.10;93.77;;;14.10;91.50;;;;;;4386439;32;20214;-62
2022/03/13 10:00:22;;;;;;;105.70;100.33;;;14.00;91.30;;;;;;4385323;32;20206;-62
2022/03/13 10:02:54;;;;;;;94.10;89.07;;;14.20;91.60;;;;;;4384161;32;20238;-62
2022/03/13 10:05:24;;;;;;;100.87;95.50;;;14.20;91.30;;;;;;4387828;32;20206;-62
2022/03/13 10:07:54;;;;;;;103.77;98.03;;;14.30;91.30;;;;;;4387599;32;20174;-62
2022/03/13 10:10:22;;;;;;;105.57;100.03;;;14.10;91.40;;;;;;4389260;32;20451;-61
2022/03/13 10:23:05;;;;;;;98.27;92.87;;;14.20;92.00;;;;;;4386849;32;20180;-61
2022/03/13 10:25:34;;;;;;;114.07;108.20;;;14.10;91.50;;;;;;4386587;32;20170;-62
2022/03/13 10:28:14;;;;;;;115.57;109.40;;;14.20;91.90;;;;;;4388557;32;20159;-62
2022/03/13 10:30:42;;;;;;;111.03;105.20;;;14.20;91.70;;;;;;4387561;32;20156;-62
2022/03/13 10:33:09;;;;;;;113.93;107.97;;;14.30;91.40;;;;;;4387166;32;20529;-62
2022/03/13 10:35:36;;;;;;;111.93;106.07;;;14.30;91.60;;;;;;4388698;32;20160;-62
2022/03/13 10:38:15;;;;;;;104.90;99.27;;;14.40;91.40;;;;;;4388924;32;20585;-62
2022/03/13 10:40:42;;;;;;;110.97;104.83;;;14.40;91.40;;;;;;4387578;32;20167;-62
2022/03/13 10:43:09;;;;;;;115.87;110.07;;;14.40;91.30;;;;;;4388884;32;20587;-61
2022/03/13 10:45:37;;;;;;;115.43;109.53;;;14.50;91.50;;;;;;4387256;32;20163;-61
2022/03/13 10:48:21;;;;;;;133.67;126.80;;;14.50;91.20;;;;;;4387118;32;20575;-61
2022/03/13 10:50:55;;;;;;;111.80;105.90;;;14.50;91.70;;;;;;4390232;32;20152;-61
2022/03/13 10:53:24;;;;;;;117.63;111.33;;;14.50;91.70;;;;;;4390738;32;20164;-61
2022/03/13 10:56:02;;;;;;;121.03;114.93;;;14.40;91.50;;;;;;4390463;32;20168;-61
2022/03/13 10:58:31;;;;;;;122.97;116.60;;;14.40;91.60;;;;;;4390553;32;20247;-62
2022/03/13 11:01:04;;;;;;;116.70;110.70;;;14.40;91.60;;;;;;4390524;32;20637;-62
2022/03/13 11:03:32;;;;;;;130.90;124.47;;;14.40;91.70;;;;;;4391202;32;20472;-62
2022/03/13 11:06:05;;;;;;;139.47;132.57;;;14.40;91.90;;;;;;4389798;32;20218;-62
2022/03/13 11:08:34;;;;;;;132.70;126.17;;;14.60;91.70;;;;;;4392117;32;20226;-61
2022/03/13 11:11:02;;;;;;;125.70;119.30;;;14.60;91.80;;;;;;4390051;32;20160;-62
2022/03/13 11:13:28;;;;;;;119.27;113.23;;;14.80;91.80;;;;;;4391510;32;20160;-61
2022/03/13 11:15:57;;;;;;;128.33;121.83;;;14.80;91.30;;;;;;4391146;32;20245;-61
2022/03/13 11:18:31;;;;;;;134.53;127.93;;;14.90;91.40;;;;;;4388694;32;20160;-61
2022/03/13 11:20:59;;;;;;;134.60;127.73;;;15.00;91.70;;;;;;4394385;32;20494;-62
2022/03/13 11:23:32;;;;;;;127.13;120.47;;;15.00;91.50;;;;;;4393094;32;20171;-61
2022/03/13 11:26:01;;;;;;;140.10;133.20;;;15.00;91.40;;;;;;4392813;32;20167;-61
2022/03/13 11:28:28;;;;;;;134.17;127.47;;;15.10;91.70;;;;;;4392677;32;20183;-60
2022/03/13 11:30:56;;;;;;;139.00;132.20;;;15.20;91.60;;;;;;4391723;32;20175;-60
2022/03/13 11:33:41;;;;;;;135.03;128.43;;;15.20;91.50;;;;;;4393629;32;20156;-62
2022/03/13 11:36:28;;;;;;;115.13;109.23;;;15.30;91.40;;;;;;4390961;32;20221;-61
2022/03/13 11:39:00;;;;;;;120.17;114.07;;;15.40;91.30;;;;;;4390959;32;20576;-61
2022/03/13 11:41:39;;;;;;;99.77;94.60;;;15.60;91.20;;;;;;4390174;32;20496;-62
2022/03/13 11:44:36;;;;;;;105.37;100.00;;;15.60;90.80;;;;;;4391164;32;20208;-62
2022/03/13 11:47:22;;;;;;;111.97;106.23;;;15.60;90.60;;;;;;4381098;32;20624;-61
2022/03/13 11:49:49;;;;;;;121.63;115.53;;;15.50;90.80;;;;;;4385047;32;20205;-62
2022/03/13 11:52:30;;;;;;;111.17;105.67;;;15.60;90.80;;;;;;4390516;32;20587;-60
2022/03/13 11:55:00;;;;;;;116.70;110.87;;;15.70;90.40;;;;;;4390196;32;20152;-61
2022/03/13 11:57:30;;;;;;;113.47;107.77;;;15.80;90.50;;;;;;4391000;32;20153;-61
2022/03/13 12:00:29;;;;;;;102.17;96.87;;;15.90;90.30;;;;;;4391554;32;20218;-62
2022/03/13 12:03:11;;;;;;;105.37;99.87;;;16.10;89.00;;;;;;4356899;33;20169;-61
2022/03/13 12:05:49;;;;;;;102.00;96.47;;;16.20;89.50;;;;;;4356721;33;20337;-61
2022/03/13 12:08:21;;;;;;;112.77;107.00;;;16.10;89.20;;;;;;4355762;32;20570;-61
2022/03/13 12:10:48;;;;;;;107.17;101.60;;;16.10;90.00;;;;;;4357551;32;20157;-61
2022/03/13 12:13:18;;;;;;;114.10;108.03;;;16.20;89.50;;;;;;4360121;32;20212;-61
2022/03/13 12:15:46;;;;;;;100.00;94.53;;;16.10;89.60;;;;;;4357846;32;20184;-62
2022/03/13 12:18:17;;;;;;;118.33;112.30;;;16.10;88.40;;;;;;4358370;32;20228;-60
2022/03/13 12:20:46;;;;;;;111.60;105.73;;;16.00;89.50;;;;;;4355532;33;20224;-61
2022/03/13 12:23:26;;;;;;;110.47;104.67;;;16.00;89.40;;;;;;4358708;32;20162;-60
2022/03/13 12:25:54;;;;;;;106.70;100.90;;;16.00;88.50;;;;;;4359697;32;20207;-61
2022/03/13 12:28:38;;;;;;;112.57;107.00;;;15.90;89.30;;;;;;4355315;32;20165;-60
2022/03/13 12:31:05;;;;;;;99.17;93.90;;;15.80;89.60;;;;;;4356097;33;20242;-60
2022/03/13 12:33:33;;;;;;;117.63;111.40;;;15.70;88.60;;;;;;4358635;32;20276;-61
2022/03/13 12:36:02;;;;;;;113.77;108.10;;;15.70;90.00;;;;;;4358741;33;20180;-61